createdAt,value
2023-01-01T00:00:20.942Z,9.719141
2023-01-01T00:01:20.909Z,9.718976
2023-01-01T00:02:20.906Z,9.719229
2023-01-01T00:03:21.097Z,9.719242
2023-01-01T00:04:20.863Z,9.719199
2023-01-01T00:05:20.837Z,9.719178
2023-01-01T00:06:20.850Z,9.719102
2023-01-01T00:07:20.821Z,9.719247
2023-01-01T00:08:20.803Z,9.719314
2023-01-01T00:09:20.796Z,9.719215
2023-01-01T00:10:20.789Z,9.719238
2023-01-01T00:11:20.778Z,9.719179
2023-01-01T00:12:20.780Z,9.719148
2023-01-01T00:13:20.781Z,9.719212
2023-01-01T00:14:20.749Z,9.719184
2023-01-01T00:15:20.836Z,9.718933
2023-01-01T00:16:20.834Z,9.719024
2023-01-01T00:17:20.714Z,9.718951
2023-01-01T00:18:20.732Z,9.718944
2023-01-01T00:19:20.697Z,9.719103
2023-01-01T00:20:20.682Z,9.719183
2023-01-01T00:21:20.664Z,9.719156
2023-01-01T00:22:54.038Z,9.719290
2023-01-01T00:23:22.681Z,9.719426
2023-01-01T00:24:20.662Z,9.719216
2023-01-01T00:25:20.686Z,9.718989
2023-01-01T00:26:20.631Z,9.719000
2023-01-01T00:27:20.627Z,9.718925
2023-01-01T00:28:20.614Z,9.719075
2023-01-01T00:29:20.591Z,9.719082
2023-01-01T00:30:20.634Z,9.719068
2023-01-01T00:31:20.605Z,9.719094
2023-01-01T00:32:22.903Z,9.719047
2023-01-01T00:33:20.591Z,9.719084
2023-01-01T00:34:20.565Z,9.719161
2023-01-01T00:35:20.572Z,9.719262
2023-01-01T00:36:20.507Z,9.719230
2023-01-01T00:37:20.539Z,9.719121
2023-01-01T00:38:20.501Z,9.719017
2023-01-01T00:39:20.491Z,9.718964
2023-01-01T00:40:20.515Z,9.719115
2023-01-01T00:41:20.497Z,9.719148
2023-01-01T00:42:20.460Z,9.719165
2023-01-01T00:43:20.456Z,9.719162
2023-01-01T00:44:20.454Z,9.718994
2023-01-01T00:45:22.400Z,9.719218
2023-01-01T00:46:21.467Z,9.719297
2023-01-01T00:47:20.456Z,9.719296
2023-01-01T00:48:20.410Z,9.719253
2023-01-01T00:49:20.405Z,9.719103
2023-01-01T00:50:20.433Z,9.719027
2023-01-01T00:51:20.375Z,9.719060
2023-01-01T00:52:20.424Z,9.719079
2023-01-01T00:53:20.380Z,9.718926
2023-01-01T00:54:20.378Z,9.718934
2023-01-01T00:55:20.354Z,9.718966
2023-01-01T00:56:20.332Z,9.718975
2023-01-01T00:57:20.317Z,9.719030
2023-01-01T00:58:20.319Z,9.719087
2023-01-01T00:59:23.905Z,9.719102
2023-01-01T01:00:22.289Z,9.718977
2023-01-01T01:01:20.376Z,9.718988
2023-01-01T01:02:20.406Z,9.719034
2023-01-01T01:03:20.359Z,9.719127
2023-01-01T01:04:20.262Z,9.719179
2023-01-01T01:05:20.222Z,9.719052
2023-01-01T01:06:20.290Z,9.718978
2023-01-01T01:07:20.497Z,9.718929
2023-01-01T01:08:23.027Z,9.718956
2023-01-01T01:09:21.242Z,9.719072
2023-01-01T01:10:20.211Z,9.719135
2023-01-01T01:11:20.186Z,9.719134
2023-01-01T01:12:20.240Z,9.719161
2023-01-01T01:13:20.168Z,9.719121
2023-01-01T01:14:20.162Z,9.719168
2023-01-01T01:15:20.130Z,9.719211
2023-01-01T01:16:20.223Z,9.719218
2023-01-01T01:17:20.146Z,9.719137
2023-01-01T01:18:20.105Z,9.719154
2023-01-01T01:19:20.144Z,9.719239
2023-01-01T01:20:20.092Z,9.719113
2023-01-01T01:21:20.127Z,9.719147
2023-01-01T01:22:25.954Z,9.719142
2023-01-01T01:23:21.058Z,9.718985
2023-01-01T01:24:20.079Z,9.719190
2023-01-01T01:25:20.246Z,9.719347
2023-01-01T01:26:20.036Z,9.719139
2023-01-01T01:27:20.045Z,9.718991
2023-01-01T01:28:20.105Z,9.719178
2023-01-01T01:29:20.040Z,9.719187
2023-01-01T01:30:20.008Z,9.719007
2023-01-01T01:31:20.061Z,9.719061
2023-01-01T01:32:19.971Z,9.719101
2023-01-01T01:33:19.961Z,9.718830
2023-01-01T01:34:25.612Z,9.719403
2023-01-01T01:35:21.960Z,9.719451
2023-01-01T01:36:51.821Z,9.719472
2023-01-01T01:37:19.902Z,9.719239
2023-01-01T01:38:19.901Z,9.719185
2023-01-01T01:39:19.891Z,9.719126
2023-01-01T01:40:19.869Z,9.719556
2023-01-01T01:41:27.746Z,9.719595
2023-01-01T01:42:21.888Z,9.719671
2023-01-01T01:43:19.835Z,9.719291
2023-01-01T01:44:19.825Z,9.719274
2023-01-01T01:45:19.818Z,9.719365
2023-01-01T01:46:19.817Z,9.719620
2023-01-01T01:47:19.819Z,9.719593
2023-01-01T01:48:19.801Z,9.719802
2023-01-01T01:49:19.780Z,9.719742
2023-01-01T01:50:19.777Z,9.719764
2023-01-01T01:51:19.769Z,9.720170
2023-01-01T01:52:19.772Z,9.719432
2023-01-01T01:53:19.773Z,9.719440
2023-01-01T01:54:19.741Z,9.719148
2023-01-01T01:55:19.754Z,9.719032
2023-01-01T01:56:19.713Z,9.719216
2023-01-01T01:57:19.707Z,9.719255
2023-01-01T01:58:19.697Z,9.719191
2023-01-01T01:59:19.697Z,9.719174
2023-01-01T02:00:19.716Z,9.719166
2023-01-01T02:01:19.744Z,9.719150
2023-01-01T02:02:19.954Z,9.719195
2023-01-01T02:03:19.662Z,9.719186
2023-01-01T02:04:20.638Z,9.719162
2023-01-01T02:05:19.649Z,9.719051
2023-01-01T02:06:19.644Z,9.719172
2023-01-01T02:07:19.610Z,9.719212
2023-01-01T02:08:19.597Z,9.719234
2023-01-01T02:09:19.595Z,9.719087
2023-01-01T02:10:19.577Z,9.719141
2023-01-01T02:11:22.094Z,9.719216
2023-01-01T02:12:20.564Z,9.719150
2023-01-01T02:13:19.563Z,9.719192
2023-01-01T02:14:19.544Z,9.719166
2023-01-01T02:15:19.549Z,9.719183
2023-01-01T02:16:19.601Z,9.719168
2023-01-01T02:17:19.502Z,9.719219
2023-01-01T02:18:19.512Z,9.719122
2023-01-01T02:19:19.495Z,9.719173
2023-01-01T02:20:19.510Z,9.719076
2023-01-01T02:21:19.515Z,9.719206
2023-01-01T02:22:19.470Z,9.719280
2023-01-01T02:23:19.460Z,9.719228
2023-01-01T02:24:19.454Z,9.719075
2023-01-01T02:25:19.443Z,9.719162
2023-01-01T02:26:19.448Z,9.719198
2023-01-01T02:27:19.453Z,9.719110
2023-01-01T02:28:19.439Z,9.719219
2023-01-01T02:29:19.401Z,9.719161
2023-01-01T02:30:19.393Z,9.719100
2023-01-01T02:31:23.159Z,9.719110
2023-01-01T02:32:20.379Z,9.719219
2023-01-01T02:33:19.376Z,9.719361
2023-01-01T02:34:19.356Z,9.719167
2023-01-01T02:35:19.350Z,9.719067
2023-01-01T02:36:19.342Z,9.719210
2023-01-01T02:37:19.326Z,9.719178
2023-01-01T02:38:19.339Z,9.719175
2023-01-01T02:39:19.309Z,9.719103
2023-01-01T02:40:19.298Z,9.719184
2023-01-01T02:41:19.314Z,9.719212
2023-01-01T02:42:19.281Z,9.719263
2023-01-01T02:43:24.578Z,9.719194
2023-01-01T02:44:21.249Z,9.719089
2023-01-01T02:45:19.291Z,9.719258
2023-01-01T02:55:05.580Z,9.719079
2023-01-01T02:56:05.599Z,9.719223
2023-01-01T02:57:05.565Z,9.719160
2023-01-01T02:58:05.562Z,9.719161
2023-01-01T02:59:05.532Z,9.719208
2023-01-01T03:00:05.519Z,9.719300
2023-01-01T03:01:05.533Z,9.719298
2023-01-01T03:02:05.607Z,9.719217
2023-01-01T03:03:05.670Z,9.719192
2023-01-01T03:04:05.487Z,9.719265
2023-01-01T03:05:05.489Z,9.719297
2023-01-01T03:06:05.487Z,9.719163
2023-01-01T03:07:05.455Z,9.719184
2023-01-01T03:08:05.501Z,9.719110
2023-01-01T03:09:05.436Z,9.719321
2023-01-01T03:10:05.425Z,9.719374
2023-01-01T03:11:05.409Z,9.719237
2023-01-01T03:12:05.414Z,9.719341
2023-01-01T03:13:05.426Z,9.719284
2023-01-01T03:14:05.407Z,9.719297
2023-01-01T03:15:05.396Z,9.719271
2023-01-01T03:16:05.412Z,9.719287
2023-01-01T03:17:05.395Z,9.719335
2023-01-01T03:18:05.343Z,9.719288
2023-01-01T03:19:05.339Z,9.719288
2023-01-01T03:20:05.335Z,9.719287
2023-01-01T03:21:05.316Z,9.719218
2023-01-01T03:22:05.325Z,9.719275
2023-01-01T03:23:05.304Z,9.719300
2023-01-01T03:24:05.286Z,9.719353
2023-01-01T03:25:05.271Z,9.719301
2023-01-01T03:26:05.277Z,9.719309
2023-01-01T03:27:05.291Z,9.719308
2023-01-01T03:28:05.256Z,9.719312
2023-01-01T03:29:05.278Z,9.719363
2023-01-01T03:30:05.243Z,9.719357
2023-01-01T03:31:05.262Z,9.719345
2023-01-01T03:32:05.205Z,9.719376
2023-01-01T03:33:05.210Z,9.719353
2023-01-01T03:34:05.203Z,9.719352
2023-01-01T03:35:05.182Z,9.719399
2023-01-01T03:36:05.185Z,9.719384
2023-01-01T03:37:05.162Z,9.719371
2023-01-01T03:38:05.153Z,9.719395
2023-01-01T03:39:05.136Z,9.719315
2023-01-01T03:40:05.118Z,9.719273
2023-01-01T03:41:05.139Z,9.719273
2023-01-01T03:42:05.123Z,9.719429
2023-01-01T03:43:05.102Z,9.719376
2023-01-01T03:44:05.083Z,9.719372
2023-01-01T03:45:05.112Z,9.719391
2023-01-01T03:46:05.109Z,9.719417
2023-01-01T03:47:05.100Z,9.719401
2023-01-01T03:48:05.051Z,9.719329
2023-01-01T03:49:05.037Z,9.719352
2023-01-01T03:50:05.053Z,9.719393
2023-01-01T03:51:05.040Z,9.719385
2023-01-01T03:52:05.013Z,9.719335
2023-01-01T03:53:05.020Z,9.719397
2023-01-01T03:54:04.996Z,9.719317
2023-01-01T03:55:04.985Z,9.719327
2023-01-01T03:56:04.965Z,9.719391
2023-01-01T03:57:05.951Z,9.719378
2023-01-01T03:58:04.980Z,9.719408
2023-01-01T03:59:04.932Z,9.719323
2023-01-01T04:00:04.937Z,9.719447
2023-01-01T04:01:04.964Z,9.719440
2023-01-01T04:02:04.998Z,9.719357
2023-01-01T04:03:04.970Z,9.719331
2023-01-01T04:04:04.945Z,9.719402
2023-01-01T04:05:04.876Z,9.719234
2023-01-01T04:06:04.886Z,9.719368
2023-01-01T04:07:14.880Z,9.719514
2023-01-01T04:08:05.863Z,9.719734
2023-01-01T04:09:04.850Z,9.719637
2023-01-01T04:10:04.836Z,9.719486
2023-01-01T04:11:04.820Z,9.719424
2023-01-01T04:12:04.856Z,9.719514
2023-01-01T04:13:04.810Z,9.719394
2023-01-01T04:14:04.795Z,9.719403
2023-01-01T04:15:04.801Z,9.719229
2023-01-01T04:16:04.819Z,9.719316
2023-01-01T04:17:04.814Z,9.719343
2023-01-01T04:18:04.772Z,9.719427
2023-01-01T04:19:04.746Z,9.719326
2023-01-01T04:20:04.732Z,9.719468
2023-01-01T04:21:04.726Z,9.719274
2023-01-01T04:22:04.730Z,9.719093
2023-01-01T04:23:04.724Z,9.719278
2023-01-01T04:24:04.688Z,9.719206
2023-01-01T04:25:04.700Z,9.719114
2023-01-01T04:26:04.711Z,9.719169
2023-01-01T04:27:04.663Z,9.719093
2023-01-01T04:28:04.657Z,9.719116
2023-01-01T04:29:04.635Z,9.719143
2023-01-01T04:30:04.638Z,9.719148
2023-01-01T04:31:04.648Z,9.719165
2023-01-01T04:32:04.605Z,9.719041
2023-01-01T04:33:04.593Z,9.719057
2023-01-01T04:34:04.593Z,9.718827
2023-01-01T04:35:04.578Z,9.718774
2023-01-01T04:36:04.567Z,9.718981
2023-01-01T04:37:08.293Z,9.719071
2023-01-01T04:38:06.551Z,9.719335
2023-01-01T04:39:04.536Z,9.719237
2023-01-01T04:40:04.521Z,9.718944
2023-01-01T04:41:04.514Z,9.719187
2023-01-01T04:42:04.517Z,9.719061
2023-01-01T04:43:04.518Z,9.719204
2023-01-01T04:44:04.493Z,9.718928
2023-01-01T04:45:04.476Z,9.719087
2023-01-01T04:46:04.553Z,9.718887
2023-01-01T04:47:04.464Z,9.718963
2023-01-01T04:48:04.456Z,9.719073
2023-01-01T04:49:04.443Z,9.718998
2023-01-01T04:50:04.445Z,9.718928
2023-01-01T04:51:04.431Z,9.719202
2023-01-01T04:52:04.408Z,9.719127
2023-01-01T04:53:04.396Z,9.719051
2023-01-01T04:54:04.401Z,9.719100
2023-01-01T04:55:04.395Z,9.719049
2023-01-01T04:56:04.370Z,9.719069
2023-01-01T04:57:04.396Z,9.719147
2023-01-01T04:58:04.356Z,9.719180
2023-01-01T04:59:04.337Z,9.719219
2023-01-01T05:00:04.362Z,9.719009
2023-01-01T05:01:04.426Z,9.719193
2023-01-01T05:02:04.407Z,9.719385
2023-01-01T05:03:04.320Z,9.719277
2023-01-01T05:04:04.299Z,9.719172
2023-01-01T05:05:04.285Z,9.719125
2023-01-01T05:06:04.267Z,9.719247
2023-01-01T05:07:04.278Z,9.719180
2023-01-01T05:08:04.254Z,9.719269
2023-01-01T05:09:04.230Z,9.719196
2023-01-01T05:10:04.228Z,9.719183
2023-01-01T05:11:04.227Z,9.719267
2023-01-01T05:12:04.235Z,9.719213
2023-01-01T05:13:04.204Z,9.719172
2023-01-01T05:14:04.185Z,9.719161
2023-01-01T05:15:04.185Z,9.719048
2023-01-01T05:16:04.190Z,9.719080
2023-01-01T05:17:04.155Z,9.719162
2023-01-01T05:18:04.214Z,9.718913
2023-01-01T05:19:04.163Z,9.719046
2023-01-01T05:20:04.141Z,9.718731
2023-01-01T05:21:04.145Z,9.719030
2023-01-01T05:22:10.157Z,9.719015
2023-01-01T05:23:06.106Z,9.718966
2023-01-01T05:24:04.118Z,9.718855
2023-01-01T05:25:04.108Z,9.719028
2023-01-01T05:26:04.075Z,9.719090
2023-01-01T05:27:04.061Z,9.719018
2023-01-01T05:28:04.052Z,9.718856
2023-01-01T05:29:04.054Z,9.718865
2023-01-01T05:30:04.076Z,9.718871
2023-01-01T05:31:04.019Z,9.719039
2023-01-01T05:32:04.047Z,9.718957
2023-01-01T05:33:04.001Z,9.718825
2023-01-01T05:36:50.382Z,9.717615
2023-01-01T05:37:50.363Z,9.718546
2023-01-01T05:38:50.378Z,9.718862
2023-01-01T05:39:50.344Z,9.718888
2023-01-01T05:40:50.342Z,9.718960
2023-01-01T05:41:50.316Z,9.719367
2023-01-01T05:42:50.321Z,9.719352
2023-01-01T05:43:50.291Z,9.719348
2023-01-01T05:44:50.277Z,9.719507
2023-01-01T05:45:51.326Z,9.719408
2023-01-01T05:46:50.310Z,9.719367
2023-01-01T05:47:50.269Z,9.719311
2023-01-01T05:48:50.252Z,9.719258
2023-01-01T05:49:50.259Z,9.719378
2023-01-01T05:50:50.228Z,9.719322
2023-01-01T05:51:50.224Z,9.719284
2023-01-01T05:52:50.301Z,9.719172
2023-01-01T05:53:50.222Z,9.719210
2023-01-01T05:54:50.202Z,9.719251
2023-01-01T05:55:50.184Z,9.719238
2023-01-01T05:56:50.164Z,9.719298
2023-01-01T05:57:50.162Z,9.719323
2023-01-01T05:58:50.150Z,9.719187
2023-01-01T05:59:50.156Z,9.719376
2023-01-01T06:00:50.171Z,9.719254
2023-01-01T06:01:50.242Z,9.719187
2023-01-01T06:02:50.263Z,9.719112
2023-01-01T06:03:50.108Z,9.719028
2023-01-01T06:04:50.172Z,9.719078
2023-01-01T06:05:50.076Z,9.719144
2023-01-01T06:06:50.092Z,9.719237
2023-01-01T06:07:50.065Z,9.719051
2023-01-01T06:08:50.058Z,9.719188
2023-01-01T06:09:50.036Z,9.719274
2023-01-01T06:10:50.030Z,9.719358
2023-01-01T06:11:50.030Z,9.719311
2023-01-01T06:12:50.041Z,9.719265
2023-01-01T06:13:49.996Z,9.719069
2023-01-01T06:14:49.986Z,9.719168
2023-01-01T06:15:49.972Z,9.719112
2023-01-01T06:16:50.002Z,9.719118
2023-01-01T06:17:49.963Z,9.719039
2023-01-01T06:18:49.972Z,9.719055
2023-01-01T06:19:49.945Z,9.719148
2023-01-01T06:20:49.914Z,9.719139
2023-01-01T06:21:49.928Z,9.719206
2023-01-01T06:22:49.895Z,9.719269
2023-01-01T06:23:49.912Z,9.719310
2023-01-01T06:24:49.900Z,9.719526
2023-01-01T06:25:49.892Z,9.719477
2023-01-01T06:26:49.862Z,9.719528
2023-01-01T06:27:49.876Z,9.719440
2023-01-01T06:28:49.917Z,9.719495
2023-01-01T06:29:49.854Z,9.719410
2023-01-01T06:30:49.869Z,9.719351
2023-01-01T06:31:49.866Z,9.719291
2023-01-01T06:32:49.814Z,9.719296
2023-01-01T06:33:49.817Z,9.719242
2023-01-01T06:34:49.798Z,9.719216
2023-01-01T06:35:49.767Z,9.719158
2023-01-01T06:36:49.778Z,9.719159
2023-01-01T06:37:49.759Z,9.719159
2023-01-01T06:38:49.762Z,9.719155
2023-01-01T06:39:49.774Z,9.719114
2023-01-01T06:40:49.736Z,9.719142
2023-01-01T06:41:49.726Z,9.719152
2023-01-01T06:42:49.720Z,9.719116
2023-01-01T06:43:49.705Z,9.719213
2023-01-01T06:44:49.706Z,9.719154
2023-01-01T06:45:49.708Z,9.719130
2023-01-01T06:46:49.664Z,9.719114
2023-01-01T06:47:49.653Z,9.719035
2023-01-01T06:48:49.662Z,9.719174
2023-01-01T06:49:49.657Z,9.719198
2023-01-01T06:50:49.660Z,9.719044
2023-01-01T06:51:49.656Z,9.719070
2023-01-01T06:52:49.607Z,9.719169
2023-01-01T06:53:49.601Z,9.719159
2023-01-01T06:54:49.585Z,9.719169
2023-01-01T06:55:54.939Z,9.719133
2023-01-01T06:56:51.583Z,9.719230
2023-01-01T06:57:49.572Z,9.719299
2023-01-01T06:58:49.565Z,9.719233
2023-01-01T06:59:49.546Z,9.719185
2023-01-01T07:00:49.543Z,9.719219
2023-01-01T07:01:49.582Z,9.719405
2023-01-01T07:02:49.632Z,9.719469
2023-01-01T07:03:49.496Z,9.719464
2023-01-01T07:04:49.483Z,9.719277
2023-01-01T07:05:49.474Z,9.719231
2023-01-01T07:06:49.466Z,9.719258
2023-01-01T07:07:49.471Z,9.719531
2023-01-01T07:08:49.461Z,9.719296
2023-01-01T07:09:49.461Z,9.719154
2023-01-01T07:10:49.435Z,9.719046
2023-01-01T07:11:49.419Z,9.719223
2023-01-01T07:12:49.431Z,9.719144
2023-01-01T07:13:49.382Z,9.719072
2023-01-01T07:14:49.400Z,9.719136
2023-01-01T07:15:49.484Z,9.719089
2023-01-01T07:16:49.358Z,9.719092
2023-01-01T07:17:49.370Z,9.719060
2023-01-01T07:18:49.354Z,9.719072
2023-01-01T07:19:49.373Z,9.719071
2023-01-01T07:20:49.328Z,9.719057
2023-01-01T07:21:49.316Z,9.719146
2023-01-01T07:22:49.301Z,9.719181
2023-01-01T07:23:49.319Z,9.719067
2023-01-01T07:24:49.303Z,9.719265
2023-01-01T07:25:49.275Z,9.719300
2023-01-01T07:26:49.311Z,9.719307
2023-01-01T07:27:49.253Z,9.719198
2023-01-01T07:28:49.264Z,9.719076
2023-01-01T07:29:49.245Z,9.719185
2023-01-01T07:30:49.290Z,9.719234
2023-01-01T07:31:49.250Z,9.719282
2023-01-01T07:32:49.218Z,9.719167
2023-01-01T07:33:49.203Z,9.719086
2023-01-01T07:34:50.911Z,9.719162
2023-01-01T07:35:50.184Z,9.719121
2023-01-01T07:37:21.078Z,9.719137
2023-01-01T07:37:49.160Z,9.719137
2023-01-01T07:38:49.155Z,9.719137
2023-01-01T07:39:49.152Z,9.719137
2023-01-01T07:40:49.167Z,9.719137
2023-01-01T07:41:49.137Z,9.719137
2023-01-01T07:42:49.134Z,9.719137
2023-01-01T07:43:49.171Z,9.719137
2023-01-01T07:44:49.113Z,9.719137
2023-01-01T07:45:49.070Z,9.719137
2023-01-01T07:46:49.105Z,9.719137
2023-01-01T07:47:49.096Z,9.719137
2023-01-01T07:48:49.070Z,9.719137
2023-01-01T07:49:49.056Z,9.719137
2023-01-01T07:50:49.095Z,9.719137
2023-01-01T07:51:49.018Z,9.719137
2023-01-01T07:52:49.045Z,9.719493
2023-01-01T07:53:49.023Z,9.719148
2023-01-01T07:54:48.999Z,9.719132
2023-01-01T07:55:48.995Z,9.718612
2023-01-01T07:56:48.971Z,9.718885
2023-01-01T07:57:48.960Z,9.719489
2023-01-01T07:58:48.954Z,9.719164
2023-01-01T07:59:48.964Z,9.719322
2023-01-01T08:00:48.943Z,9.718824
2023-01-01T08:01:48.997Z,9.719062
2023-01-01T08:02:49.028Z,9.719062
2023-01-01T08:03:48.906Z,9.719062
2023-01-01T08:04:48.941Z,9.719062
2023-01-01T08:05:48.895Z,9.719062
2023-01-01T08:06:48.877Z,9.719062
2023-01-01T08:07:48.865Z,9.719062
2023-01-01T08:08:48.877Z,9.719062
2023-01-01T08:09:48.842Z,9.719062
2023-01-01T08:10:48.839Z,9.719062
2023-01-01T08:11:48.818Z,9.719062
2023-01-01T08:12:48.854Z,9.719315
2023-01-01T08:13:48.818Z,9.718899
2023-01-01T08:14:48.809Z,9.718946
2023-01-01T08:15:48.800Z,9.719031
2023-01-01T08:16:48.780Z,9.718993
2023-01-01T08:17:48.795Z,9.719055
2023-01-01T08:18:48.755Z,9.719318
2023-01-01T08:19:48.761Z,9.719253
2023-01-01T08:20:48.743Z,9.719197
2023-01-01T08:21:48.727Z,9.719152
2023-01-01T08:22:48.729Z,9.719348
2023-01-01T08:23:48.703Z,9.719379
2023-01-01T08:24:48.724Z,9.719682
2023-01-01T08:25:48.733Z,9.719487
2023-01-01T08:26:48.676Z,9.719345
2023-01-01T08:27:48.687Z,9.719283
2023-01-01T08:28:53.507Z,9.719154
2023-01-01T08:29:48.646Z,9.719221
2023-01-01T08:30:48.634Z,9.719435
2023-01-01T08:31:48.673Z,9.719376
2023-01-01T08:32:48.622Z,9.719477
2023-01-01T08:33:48.641Z,9.719334
2023-01-01T08:34:48.608Z,9.719123
2023-01-01T08:35:53.835Z,9.719240
2023-01-01T08:36:49.588Z,9.719265
2023-01-01T08:37:48.607Z,9.719440
2023-01-01T08:38:48.553Z,9.719335
2023-01-01T08:39:48.559Z,9.719406
2023-01-01T08:40:49.573Z,9.719358
2023-01-01T08:41:48.528Z,9.719292
2023-01-01T08:42:48.550Z,9.719597
2023-01-01T08:43:48.536Z,9.719507
2023-01-01T08:44:48.498Z,9.719526
2023-01-01T08:45:48.480Z,9.719450
2023-01-01T08:46:48.503Z,9.719434
2023-01-01T08:47:48.458Z,9.719434
2023-01-01T08:48:48.485Z,9.719281
2023-01-01T08:49:48.470Z,9.719329
2023-01-01T08:50:48.451Z,9.719225
2023-01-01T08:51:48.424Z,9.719328
2023-01-01T08:52:48.423Z,9.719177
2023-01-01T08:53:51.329Z,9.719363
2023-01-01T08:54:49.389Z,9.719348
2023-01-01T08:55:48.388Z,9.719407
2023-01-01T08:56:48.373Z,9.719421
2023-01-01T08:57:48.377Z,9.719388
2023-01-01T08:58:48.365Z,9.719295
2023-01-01T08:59:48.366Z,9.719333
2023-01-01T09:00:48.344Z,9.719398
2023-01-01T09:01:48.432Z,9.719335
2023-01-01T09:02:48.453Z,9.719315
2023-01-01T09:03:48.335Z,9.719269
2023-01-01T09:04:48.307Z,9.719270
2023-01-01T09:05:48.303Z,9.719294
2023-01-01T09:06:48.283Z,9.719317
2023-01-01T09:07:48.276Z,9.719367
2023-01-01T09:08:48.289Z,9.719381
2023-01-01T09:09:48.285Z,9.719336
2023-01-01T09:10:48.270Z,9.719348
2023-01-01T09:11:48.257Z,9.719334
2023-01-01T09:12:48.221Z,9.719255
2023-01-01T09:13:48.243Z,9.719259
2023-01-01T09:14:48.235Z,9.719203
2023-01-01T09:15:48.230Z,9.719233
2023-01-01T09:16:48.230Z,9.719201
2023-01-01T09:17:48.175Z,9.719231
2023-01-01T09:18:48.176Z,9.719239
2023-01-01T09:19:48.195Z,9.719260
2023-01-01T09:20:48.160Z,9.719239
2023-01-01T09:21:48.152Z,9.719212
2023-01-01T09:22:48.144Z,9.719153
2023-01-01T09:23:48.124Z,9.719223
2023-01-01T09:24:48.105Z,9.719255
2023-01-01T09:25:48.126Z,9.719204
2023-01-01T09:26:48.099Z,9.719126
2023-01-01T09:27:48.084Z,9.719163
2023-01-01T09:28:48.091Z,9.719159
2023-01-01T09:29:48.048Z,9.719036
2023-01-01T09:30:48.062Z,9.719069
2023-01-01T09:31:48.080Z,9.719142
2023-01-01T09:32:48.031Z,9.718845
2023-01-01T09:33:48.011Z,9.719158
2023-01-01T09:34:52.333Z,9.719265
2023-01-01T09:35:49.021Z,9.719188
2023-01-01T09:36:48.003Z,9.718920
2023-01-01T09:37:48.017Z,9.719094
2023-01-01T09:38:47.970Z,9.719594
2023-01-01T09:39:47.958Z,9.719331
2023-01-01T09:40:51.298Z,9.719258
2023-01-01T09:41:48.941Z,9.718959
2023-01-01T09:42:47.952Z,9.719106
2023-01-01T09:43:47.916Z,9.719083
2023-01-01T09:44:47.907Z,9.719216
2023-01-01T09:45:47.944Z,9.719276
2023-01-01T09:46:47.905Z,9.719089
2023-01-01T09:47:47.877Z,9.718982
2023-01-01T09:48:47.886Z,9.719156
2023-01-01T09:49:47.855Z,9.719135
2023-01-01T09:50:47.883Z,9.719134
2023-01-01T09:51:53.883Z,9.719073
2023-01-01T09:52:48.837Z,9.719131
2023-01-01T09:53:47.824Z,9.719123
2023-01-01T09:54:47.805Z,9.719109
2023-01-01T09:55:47.834Z,9.719058
2023-01-01T09:56:47.807Z,9.719075
2023-01-01T09:57:47.804Z,9.719131
2023-01-01T09:58:47.766Z,9.719149
2023-01-01T09:59:47.758Z,9.719130
2023-01-01T10:00:47.759Z,9.719090
2023-01-01T10:01:47.829Z,9.719099
2023-01-01T10:02:51.724Z,9.719177
2023-01-01T10:03:49.799Z,9.719201
2023-01-01T10:04:47.716Z,9.719191
2023-01-01T10:05:47.713Z,9.719145
2023-01-01T10:06:47.701Z,9.719134
2023-01-01T10:07:47.668Z,9.719139
2023-01-01T10:08:47.667Z,9.719125
2023-01-01T10:09:47.688Z,9.719129
2023-01-01T10:10:47.660Z,9.719186
2023-01-01T10:11:47.643Z,9.719139
2023-01-01T10:12:47.651Z,9.719126
2023-01-01T10:13:47.637Z,9.719133
2023-01-01T10:14:47.625Z,9.719185
2023-01-01T10:15:47.626Z,9.719158
2023-01-01T10:16:47.610Z,9.719200
2023-01-01T10:17:47.587Z,9.719274
2023-01-01T10:18:47.571Z,9.719194
2023-01-01T10:19:47.564Z,9.719248
2023-01-01T10:20:47.560Z,9.719315
2023-01-01T10:21:47.707Z,9.719193
2023-01-01T10:22:47.545Z,9.719146
2023-01-01T10:23:47.518Z,9.719184
2023-01-01T10:24:47.524Z,9.719146
2023-01-01T10:25:47.501Z,9.719210
2023-01-01T10:26:47.546Z,9.719126
2023-01-01T10:27:47.498Z,9.719197
2023-01-01T10:28:47.467Z,9.719068
2023-01-01T10:29:47.452Z,9.719026
2023-01-01T10:30:47.448Z,9.719211
2023-01-01T10:31:47.535Z,9.719174
2023-01-01T10:32:47.422Z,9.719157
2023-01-01T10:33:47.409Z,9.719248
2023-01-01T10:34:47.406Z,9.719204
2023-01-01T10:35:47.408Z,9.719171
2023-01-01T10:36:47.447Z,9.719073
2023-01-01T10:37:47.393Z,9.719102
2023-01-01T10:38:47.365Z,9.719104
2023-01-01T10:39:47.466Z,9.719181
2023-01-01T10:40:47.352Z,9.719199
2023-01-01T10:41:47.330Z,9.719163
2023-01-01T10:42:47.347Z,9.719152
2023-01-01T10:43:47.313Z,9.719140
2023-01-01T10:44:47.300Z,9.719120
2023-01-01T10:45:47.318Z,9.719007
2023-01-01T10:46:47.308Z,9.719075
2023-01-01T10:47:47.300Z,9.719144
2023-01-01T10:48:47.260Z,9.719210
2023-01-01T10:49:47.265Z,9.719103
2023-01-01T10:50:47.245Z,9.719114
2023-01-01T10:51:47.237Z,9.719186
2023-01-01T10:52:47.250Z,9.719121
2023-01-01T10:53:47.232Z,9.719153
2023-01-01T10:54:47.219Z,9.718026
2023-01-01T10:55:47.220Z,9.718824
2023-01-01T10:56:47.187Z,9.718962
2023-01-01T10:57:47.201Z,9.719062
2023-01-01T10:58:47.198Z,9.718685
2023-01-01T10:59:53.971Z,9.718530
2023-01-01T11:00:48.243Z,9.718978
2023-01-01T11:01:47.213Z,9.719111
2023-01-01T11:02:47.291Z,9.719151
2023-01-01T11:03:47.132Z,9.719077
2023-01-01T11:04:47.100Z,9.718923
2023-01-01T11:05:47.116Z,9.718918
2023-01-01T11:06:47.100Z,9.718903
2023-01-01T11:07:47.088Z,9.719002
2023-01-01T11:08:47.064Z,9.718984
2023-01-01T11:10:02.069Z,9.718971
2023-01-01T11:10:49.104Z,9.719025
2023-01-01T11:11:47.081Z,9.719098
2023-01-01T11:13:04.716Z,9.719038
2023-01-01T11:13:49.033Z,9.719005
2023-01-01T11:14:47.016Z,9.718971
2023-01-01T11:15:47.026Z,9.718950
2023-01-01T11:16:47.054Z,9.719049
2023-01-01T11:17:46.986Z,9.719128
2023-01-01T11:18:46.981Z,9.719157
2023-01-01T11:19:51.311Z,9.719051
2023-01-01T11:20:47.951Z,9.718946
2023-01-01T11:21:46.955Z,9.718982
2023-01-01T11:22:46.958Z,9.719067
2023-01-01T11:23:46.919Z,9.719130
2023-01-01T11:24:46.915Z,9.719017
2023-01-01T11:25:46.890Z,9.718987
2023-01-01T11:26:53.912Z,9.719006
2023-01-01T11:27:48.904Z,9.719010
2023-01-01T11:28:47.902Z,9.719056
2023-01-01T11:29:46.859Z,9.719227
2023-01-01T11:30:46.869Z,9.719250
2023-01-01T11:31:46.852Z,9.719223
2023-01-01T11:32:50.521Z,9.719198
2023-01-01T11:33:48.841Z,9.719146
2023-01-01T11:34:46.818Z,9.719255
2023-01-01T11:35:46.790Z,9.719293
2023-01-01T11:36:46.790Z,9.719232
2023-01-01T11:37:46.792Z,9.719059
2023-01-01T11:38:46.790Z,9.719101
2023-01-01T11:39:46.762Z,9.719194
2023-01-01T11:40:46.758Z,9.719218
2023-01-01T11:41:46.752Z,9.719281
2023-01-01T11:42:46.824Z,9.719316
2023-01-01T11:43:46.754Z,9.719263
2023-01-01T11:44:46.718Z,9.719227
2023-01-01T11:45:46.733Z,9.719270
2023-01-01T11:46:46.702Z,9.719286
2023-01-01T11:47:46.672Z,9.719192
2023-01-01T11:48:46.682Z,9.719130
2023-01-01T11:49:46.674Z,9.719177
2023-01-01T11:50:50.415Z,9.719225
2023-01-01T11:51:48.659Z,9.719210
2023-01-01T11:52:46.638Z,9.719271
2023-01-01T11:53:46.637Z,9.719203
2023-01-01T11:54:47.619Z,9.719159
2023-01-01T11:55:46.616Z,9.719210